createdAt,value
2022-08-17T00:02:25.517Z,5.15
2022-08-17T00:04:55.525Z,7.70
2022-08-17T00:07:23.246Z,4.60
2022-08-17T00:09:50.522Z,5.00
2022-08-17T00:12:41.997Z,6.03
2022-08-17T00:15:08.282Z,5.85
2022-08-17T00:20:06.657Z,5.30
2022-08-17T00:22:36.568Z,6.93
2022-08-17T00:25:17.259Z,5.82
2022-08-17T00:27:44.632Z,7.35
2022-08-17T00:30:13.116Z,6.00
2022-08-17T00:33:12.681Z,7.20
2022-08-17T00:35:33.893Z,5.72
2022-08-17T00:38:01.310Z,6.38
2022-08-17T00:40:44.292Z,5.05
2022-08-17T00:43:17.622Z,8.95
2022-08-17T00:45:45.764Z,6.47
2022-08-17T00:48:29.454Z,4.68
2022-08-17T00:51:12.016Z,4.15
2022-08-17T00:53:44.174Z,4.03
2022-08-17T00:56:19.418Z,4.88
2022-08-17T00:58:48.587Z,5.70
2022-08-17T01:01:21.644Z,6.10
2022-08-17T01:03:51.853Z,5.85
2022-08-17T01:06:20.915Z,7.22
2022-08-17T01:08:57.304Z,6.55
2022-08-17T01:11:26.223Z,5.70
2022-08-17T01:13:53.715Z,6.07
2022-08-17T01:16:28.390Z,7.68
2022-08-17T01:19:05.231Z,6.43
2022-08-17T01:21:46.505Z,6.22
2022-08-17T01:24:14.588Z,7.03
2022-08-17T01:26:43.436Z,6.18
2022-08-17T01:29:12.672Z,7.18
2022-08-17T01:31:45.655Z,5.50
2022-08-17T01:34:15.954Z,5.18
2022-08-17T01:36:45.923Z,5.85
2022-08-17T01:39:32.912Z,6.40
2022-08-17T01:42:33.532Z,5.05
2022-08-17T01:45:11.707Z,5.75
2022-08-17T01:47:38.992Z,6.32
2022-08-17T01:50:11.899Z,7.30
2022-08-17T01:52:40.238Z,5.97
2022-08-17T01:55:09.167Z,6.53
2022-08-17T01:57:36.568Z,7.25
2022-08-17T02:00:09.675Z,6.20
2022-08-17T02:02:38.533Z,7.50
2022-08-17T02:05:07.211Z,4.72
2022-08-17T02:07:48.020Z,5.90
2022-08-17T02:10:24.208Z,5.03
2022-08-17T02:13:03.561Z,5.13
2022-08-17T02:15:31.043Z,4.53
2022-08-17T02:17:58.553Z,6.45
2022-08-17T02:20:41.316Z,5.07
2022-08-17T02:23:12.873Z,6.00
2022-08-17T02:25:43.890Z,5.30
2022-08-17T02:28:11.380Z,4.90
2022-08-17T02:30:59.759Z,5.13
2022-08-17T02:33:42.070Z,6.00
2022-08-17T02:36:12.819Z,5.57
2022-08-17T02:38:41.488Z,6.05
2022-08-17T02:41:09.115Z,7.53
2022-08-17T02:43:36.797Z,4.75
2022-08-17T02:46:04.176Z,5.40
2022-08-17T02:48:32.118Z,5.32
2022-08-17T02:51:00.859Z,6.78
2022-08-17T02:53:33.685Z,4.50
2022-08-17T02:56:03.962Z,5.60
2022-08-17T02:58:34.405Z,7.97
2022-08-17T03:01:07.535Z,6.30
2022-08-17T03:03:36.660Z,7.93
2022-08-17T03:06:04.766Z,4.72
2022-08-17T03:08:32.158Z,3.97
2022-08-17T03:10:59.767Z,6.85
2022-08-17T03:13:27.600Z,4.65
2022-08-17T03:15:54.998Z,7.80
2022-08-17T03:18:25.503Z,4.72
2022-08-17T03:20:56.631Z,5.05
2022-08-17T03:23:25.424Z,9.15
2022-08-17T03:25:54.133Z,6.10
2022-08-17T03:28:22.125Z,5.97
2022-08-17T03:30:51.322Z,6.25
2022-08-17T03:33:20.026Z,5.88
2022-08-17T03:35:50.350Z,6.45
2022-08-17T03:38:18.398Z,7.68
2022-08-17T03:40:57.313Z,4.78
2022-08-17T03:43:29.283Z,6.63
2022-08-17T03:46:34.113Z,5.65
2022-08-17T03:49:25.662Z,8.82
2022-08-17T03:52:16.110Z,6.35
2022-08-17T03:55:02.902Z,5.25
2022-08-17T03:57:31.548Z,5.93
2022-08-17T03:59:59.842Z,9.48
2022-08-17T04:02:30.021Z,7.72
2022-08-17T04:04:58.293Z,7.07
2022-08-17T04:07:29.288Z,7.15
2022-08-17T04:09:59.647Z,5.65
2022-08-17T04:12:30.851Z,5.50
2022-08-17T04:14:58.984Z,5.60
2022-08-17T04:17:28.302Z,6.47
2022-08-17T04:19:56.638Z,7.43
2022-08-17T04:22:32.844Z,5.57
2022-08-17T04:25:05.393Z,6.40
2022-08-17T04:27:32.769Z,5.22
2022-08-17T04:30:00.615Z,6.32
2022-08-17T04:33:04.351Z,8.27
2022-08-17T04:35:26.409Z,7.38
2022-08-17T04:37:53.808Z,5.18
2022-08-17T04:40:41.167Z,6.90
2022-08-17T04:43:11.808Z,7.05
2022-08-17T04:45:55.580Z,7.65
2022-08-17T04:48:27.981Z,8.20
2022-08-17T04:51:05.071Z,5.95
2022-08-17T04:53:32.609Z,6.45
2022-08-17T04:55:59.852Z,5.38
2022-08-17T04:58:27.153Z,6.38
2022-08-17T05:00:54.637Z,6.20
2022-08-17T05:03:22.123Z,8.00
2022-08-17T05:05:49.847Z,7.82
2022-08-17T05:08:20.000Z,6.15
2022-08-17T05:10:48.545Z,8.55
2022-08-17T05:13:19.138Z,6.10
2022-08-17T05:15:48.244Z,7.40
2022-08-17T05:18:17.446Z,8.85
2022-08-17T05:20:45.258Z,7.28
2022-08-17T05:23:15.391Z,6.78
2022-08-17T05:25:48.367Z,8.48
2022-08-17T05:28:23.453Z,10.90
2022-08-17T05:30:57.974Z,6.50
2022-08-17T05:33:38.204Z,6.30
2022-08-17T05:36:10.868Z,9.70
2022-08-17T05:38:58.742Z,6.68
2022-08-17T05:41:26.124Z,5.82
2022-08-17T05:43:56.369Z,6.97
2022-08-17T05:46:27.521Z,7.32
2022-08-17T05:49:01.948Z,6.50
2022-08-17T05:51:48.161Z,7.28
2022-08-17T05:54:34.285Z,7.35
2022-08-17T05:57:20.961Z,7.57
2022-08-17T06:00:13.341Z,7.10
2022-08-17T06:02:48.659Z,7.85
2022-08-17T06:05:53.411Z,7.95
2022-08-17T06:08:37.951Z,15.57
2022-08-17T06:11:31.453Z,9.50
2022-08-17T06:14:30.306Z,8.45
2022-08-17T06:17:06.885Z,12.38
2022-08-17T06:19:49.917Z,13.15
2022-08-17T06:22:20.793Z,13.07
2022-08-17T06:24:57.486Z,13.50
2022-08-17T06:27:49.015Z,12.52
2022-08-17T06:30:28.276Z,15.77
2022-08-17T06:33:05.818Z,19.77
2022-08-17T06:36:02.647Z,14.38
2022-08-17T06:38:48.102Z,14.60
2022-08-17T06:41:24.389Z,16.38
2022-08-17T06:44:03.944Z,15.88
2022-08-17T06:46:37.581Z,17.60
2022-08-17T06:49:25.985Z,16.27
2022-08-17T06:52:08.049Z,16.45
2022-08-17T06:54:47.270Z,14.73
2022-08-17T06:57:28.384Z,13.77
2022-08-17T07:00:20.901Z,16.13
2022-08-17T07:02:55.303Z,13.63
2022-08-17T07:05:26.457Z,15.45
2022-08-17T07:08:34.998Z,14.48
2022-08-17T07:11:10.984Z,18.88
2022-08-17T07:13:51.746Z,16.35
2022-08-17T07:16:27.441Z,19.63
2022-08-17T07:18:56.776Z,17.73
2022-08-17T07:21:55.062Z,16.52
2022-08-17T07:24:52.514Z,18.58
2022-08-17T07:27:23.269Z,15.32
2022-08-17T07:30:03.672Z,15.00
2022-08-17T07:32:57.849Z,17.85
2022-08-17T07:35:44.087Z,17.80
2022-08-17T07:38:25.029Z,16.17
2022-08-17T07:41:02.633Z,15.38
2022-08-17T07:43:36.430Z,18.42
2022-08-17T07:46:39.199Z,16.98
2022-08-17T07:49:09.494Z,15.90
2022-08-17T07:51:39.370Z,16.83
2022-08-17T07:54:15.848Z,17.80
2022-08-17T07:56:49.124Z,18.25
2022-08-17T07:59:20.459Z,14.48
2022-08-17T08:02:07.172Z,16.40
2022-08-17T08:04:59.059Z,17.60
2022-08-17T08:07:21.916Z,14.27
2022-08-17T08:10:05.064Z,17.55
2022-08-17T08:12:46.896Z,22.92
2022-08-17T08:15:25.637Z,20.37
2022-08-17T08:17:59.359Z,15.15
2022-08-17T08:20:52.521Z,12.57
2022-08-17T08:23:29.544Z,13.93
2022-08-17T08:26:18.948Z,15.75
2022-08-17T08:29:14.070Z,14.38
2022-08-17T08:31:47.451Z,14.07
2022-08-17T08:35:01.801Z,18.40
2022-08-17T08:38:14.995Z,15.27
2022-08-17T08:41:00.832Z,12.48
2022-08-17T08:43:50.862Z,10.13
2022-08-17T08:46:47.065Z,17.08
2022-08-17T08:50:03.351Z,18.83
2022-08-17T08:52:51.348Z,13.48
2022-08-17T08:55:41.685Z,13.35
2022-08-17T08:58:31.521Z,12.68
2022-08-17T09:01:18.366Z,12.32
2022-08-17T09:03:54.817Z,15.35
2022-08-17T09:07:01.518Z,15.75
2022-08-17T09:09:36.067Z,16.52
2022-08-17T09:12:34.612Z,13.68
2022-08-17T09:15:27.528Z,12.15
2022-08-17T09:19:01.090Z,16.98
2022-08-17T09:21:14.321Z,14.65
2022-08-17T09:24:14.735Z,11.98
2022-08-17T09:27:01.048Z,14.27
2022-08-17T09:29:35.160Z,11.70
2022-08-17T09:32:15.032Z,12.95
2022-08-17T09:34:51.381Z,11.13
2022-08-17T09:38:01.165Z,9.95
2022-08-17T09:40:43.520Z,15.38
2022-08-17T09:43:40.099Z,9.30
2022-08-17T09:46:19.801Z,9.68
2022-08-17T09:48:50.299Z,9.40
2022-08-17T09:51:30.367Z,12.13
2022-08-17T09:54:14.709Z,12.48
2022-08-17T09:57:28.159Z,11.48
2022-08-17T10:00:16.089Z,11.30
2022-08-17T10:03:03.064Z,11.15
2022-08-17T10:05:57.151Z,12.90
2022-08-17T10:08:36.366Z,11.10
2022-08-17T10:11:16.774Z,11.25
2022-08-17T10:14:36.914Z,8.75
2022-08-17T10:17:15.891Z,8.80
2022-08-17T10:20:35.758Z,10.95
2022-08-17T10:23:25.311Z,12.15
2022-08-17T10:26:15.702Z,8.80
2022-08-17T10:29:09.832Z,9.13
2022-08-17T10:31:51.719Z,6.85
2022-08-17T10:34:32.277Z,9.38
2022-08-17T10:43:42.330Z,12.27
2022-08-17T11:04:59.764Z,13.15
2022-08-17T11:08:05.362Z,12.35
2022-08-17T11:10:59.050Z,11.68
2022-08-17T11:13:29.308Z,12.70
2022-08-17T11:16:09.036Z,12.80
2022-08-17T11:18:45.341Z,13.13
2022-08-17T11:22:00.476Z,10.38
2022-08-17T11:24:31.034Z,7.75
2022-08-17T11:27:16.447Z,13.75
2022-08-17T11:29:58.053Z,13.23
2022-08-17T11:32:47.196Z,15.93
2022-08-17T11:35:43.382Z,11.15
2022-08-17T11:38:36.979Z,10.57
2022-08-17T11:41:34.158Z,11.65
2022-08-17T11:44:22.617Z,10.13
2022-08-17T11:47:20.690Z,10.73
2022-08-17T11:50:25.700Z,7.97
2022-08-17T11:52:55.383Z,13.38
2022-08-17T11:55:39.363Z,9.25
2022-08-17T11:58:18.099Z,10.90
2022-08-17T12:00:45.326Z,11.48
2022-08-17T12:03:22.734Z,9.18
2022-08-17T12:05:53.547Z,11.23
2022-08-17T12:08:23.077Z,11.65
2022-08-17T12:11:19.030Z,8.88
2022-08-17T12:14:11.616Z,8.95
2022-08-17T12:16:42.707Z,11.55
2022-08-17T12:19:21.075Z,7.45
2022-08-17T12:22:16.539Z,8.27
2022-08-17T12:25:02.587Z,9.07
2022-08-17T12:28:04.476Z,10.35
2022-08-17T12:30:22.205Z,10.88
2022-08-17T12:32:50.117Z,8.27
2022-08-17T12:35:29.866Z,7.55
2022-08-17T12:37:58.070Z,8.48
2022-08-17T12:40:28.860Z,8.55
2022-08-17T12:43:32.963Z,8.55
2022-08-17T12:46:13.300Z,9.25
2022-08-17T12:48:58.837Z,10.63
2022-08-17T12:51:29.200Z,10.18
2022-08-17T12:53:56.837Z,9.02
2022-08-17T12:56:24.255Z,6.57
2022-08-17T12:58:55.640Z,10.98
2022-08-17T13:03:55.212Z,8.13
2022-08-17T13:06:35.778Z,11.40
2022-08-17T13:09:17.994Z,8.68
2022-08-17T13:11:51.850Z,7.47
2022-08-17T13:14:19.969Z,6.30
2022-08-17T13:16:55.592Z,7.55
2022-08-17T13:19:40.433Z,6.32
2022-08-17T13:22:12.692Z,8.23
2022-08-17T13:24:53.156Z,8.73
2022-08-17T13:27:23.838Z,7.38
2022-08-17T13:29:56.430Z,8.35
2022-08-17T13:32:36.593Z,6.63
2022-08-17T13:35:40.998Z,6.75
2022-08-17T13:38:13.139Z,7.88
2022-08-17T13:40:50.096Z,5.07
2022-08-17T13:43:50.579Z,8.93
2022-08-17T13:46:21.791Z,6.95
2022-08-17T13:49:04.674Z,6.40
2022-08-17T13:51:42.888Z,7.97
2022-08-17T13:54:23.488Z,8.40
2022-08-17T13:57:04.195Z,6.50
2022-08-17T13:59:53.020Z,7.88
2022-08-17T14:02:28.343Z,7.18
2022-08-17T14:04:57.806Z,8.75
2022-08-17T14:07:33.735Z,5.93
2022-08-17T14:10:17.501Z,5.82
2022-08-17T14:12:45.554Z,5.60
2022-08-17T14:15:15.842Z,6.22
2022-08-17T14:17:43.524Z,6.60
2022-08-17T14:20:12.828Z,7.65
2022-08-17T14:22:44.918Z,7.78
2022-08-17T14:25:15.590Z,7.35
2022-08-17T14:27:52.390Z,5.63
2022-08-17T14:30:25.703Z,6.47
2022-08-17T14:32:55.123Z,5.85
2022-08-17T14:35:24.089Z,7.82
2022-08-17T14:37:52.109Z,5.50
2022-08-17T14:40:24.462Z,5.85
2022-08-17T14:42:54.438Z,6.03
2022-08-17T14:45:31.983Z,5.63
2022-08-17T14:48:04.145Z,5.20
2022-08-17T14:50:32.087Z,5.25
2022-08-17T14:53:05.139Z,6.85
2022-08-17T14:55:32.913Z,5.35
2022-08-17T14:58:00.298Z,6.05
2022-08-17T15:00:28.609Z,7.43
2022-08-17T15:02:58.832Z,5.53
2022-08-17T15:05:33.837Z,9.98
2022-08-17T15:08:03.083Z,5.53
2022-08-17T15:10:30.685Z,6.78
2022-08-17T15:12:58.518Z,6.63
2022-08-17T15:15:26.428Z,5.97
2022-08-17T15:17:53.706Z,7.65
2022-08-17T15:20:25.010Z,6.43
2022-08-17T15:22:56.031Z,5.30
2022-08-17T15:25:25.416Z,5.68
2022-08-17T15:27:53.752Z,4.95
2022-08-17T15:30:21.746Z,7.03
2022-08-17T15:32:54.485Z,7.82
2022-08-17T15:35:28.369Z,6.70
2022-08-17T15:38:11.033Z,6.47
2022-08-17T15:40:50.749Z,5.97
2022-08-17T15:43:26.665Z,8.18
2022-08-17T15:46:18.840Z,7.72
2022-08-17T15:48:51.575Z,7.28
2022-08-17T15:51:26.625Z,6.38
2022-08-17T15:54:17.241Z,7.85
2022-08-17T15:56:47.087Z,5.70
2022-08-17T15:59:14.413Z,4.75
2022-08-17T16:03:02.190Z,6.63
2022-08-17T16:04:30.824Z,7.65
2022-08-17T16:07:00.088Z,7.55
2022-08-17T16:09:28.158Z,6.68
2022-08-17T16:11:56.377Z,6.55
2022-08-17T16:14:33.558Z,5.78
2022-08-17T16:17:04.601Z,5.97
2022-08-17T16:19:34.347Z,6.35
2022-08-17T16:22:02.709Z,8.27
2022-08-17T16:24:30.802Z,7.03
2022-08-17T16:28:13.784Z,7.78
2022-08-17T16:30:41.536Z,7.82
2022-08-17T16:33:11.488Z,6.70
2022-08-17T16:35:39.212Z,6.55
2022-08-17T16:38:07.165Z,9.55
2022-08-17T16:40:36.406Z,5.75
2022-08-17T16:43:10.655Z,8.02
2022-08-17T16:45:40.809Z,6.10
2022-08-17T16:48:09.655Z,7.20
2022-08-17T16:50:37.472Z,6.57
2022-08-17T16:53:06.571Z,6.82
2022-08-17T16:55:35.756Z,5.85
2022-08-17T16:58:08.849Z,5.32
2022-08-17T17:00:37.459Z,6.20
2022-08-17T17:03:19.585Z,9.05
2022-08-17T17:08:54.713Z,7.30
2022-08-17T17:11:45.185Z,7.60
2022-08-17T17:14:28.301Z,7.25
2022-08-17T17:17:13.912Z,6.60
2022-08-17T17:20:24.269Z,6.82
2022-08-17T17:23:08.880Z,7.72
2022-08-17T17:25:50.973Z,7.95
2022-08-17T17:28:34.508Z,6.85
2022-08-17T17:31:14.303Z,7.50
2022-08-17T17:33:48.303Z,6.97
2022-08-17T17:36:56.495Z,8.23
2022-08-17T17:40:01.689Z,7.82
2022-08-17T17:42:31.749Z,8.63
2022-08-17T17:45:32.091Z,11.23
2022-08-17T17:47:59.378Z,8.45
2022-08-17T17:51:12.106Z,7.10
2022-08-17T17:53:52.861Z,6.68
2022-08-17T17:56:43.743Z,6.85
2022-08-17T17:59:32.910Z,8.13
2022-08-17T18:02:47.418Z,9.32
2022-08-17T18:05:19.656Z,5.65
2022-08-17T18:07:55.711Z,6.07
2022-08-17T18:10:47.437Z,9.05
2022-08-17T18:13:35.632Z,4.68
2022-08-17T18:16:10.533Z,4.38
2022-08-17T18:18:39.873Z,6.07
2022-08-17T18:21:21.205Z,5.57
2022-08-17T18:23:48.521Z,5.38
2022-08-17T18:26:34.480Z,5.68
2022-08-17T18:29:12.177Z,5.85
2022-08-17T18:31:39.674Z,6.35
2022-08-17T18:34:47.142Z,7.40
2022-08-17T18:37:31.893Z,6.43
2022-08-17T18:40:23.462Z,7.47
2022-08-17T18:43:11.559Z,4.18
2022-08-17T18:45:46.605Z,7.70
2022-08-17T18:48:22.979Z,5.93
2022-08-17T18:50:53.604Z,4.50
2022-08-17T18:53:33.558Z,4.50
2022-08-17T18:56:40.384Z,6.07
2022-08-17T18:59:27.203Z,4.20
2022-08-17T19:02:03.248Z,5.70
2022-08-17T19:04:35.055Z,4.30
2022-08-17T19:07:19.243Z,5.45
2022-08-17T19:09:52.777Z,4.75
2022-08-17T19:12:29.104Z,5.90
2022-08-17T19:14:58.277Z,6.43
2022-08-17T19:17:33.110Z,5.43
2022-08-17T19:20:10.356Z,6.30
2022-08-17T19:22:51.575Z,4.05
2022-08-17T19:25:24.612Z,4.18
2022-08-17T19:27:57.902Z,5.10
2022-08-17T19:30:25.549Z,4.35
2022-08-17T19:32:53.188Z,8.00
2022-08-17T19:35:24.593Z,6.80
2022-08-17T19:38:00.832Z,5.03
2022-08-17T19:40:58.531Z,5.78
2022-08-17T19:44:13.835Z,4.10
2022-08-17T19:46:56.382Z,6.43
2022-08-17T19:49:47.829Z,4.95
2022-08-17T19:52:15.113Z,4.45
2022-08-17T19:55:03.471Z,4.13
2022-08-17T19:57:56.950Z,4.28
2022-08-17T20:00:24.639Z,5.82
2022-08-17T20:03:20.001Z,5.32
2022-08-17T20:06:12.033Z,6.35
2022-08-17T20:08:48.824Z,5.68
2022-08-17T20:11:23.354Z,4.90
2022-08-17T20:14:04.599Z,4.28
2022-08-17T20:16:33.422Z,4.97
2022-08-17T20:19:06.139Z,5.95
2022-08-17T20:21:45.941Z,5.65
2022-08-17T20:24:25.214Z,5.30
2022-08-17T20:27:19.681Z,4.68
2022-08-17T20:30:29.822Z,3.88
2022-08-17T20:32:58.902Z,4.28
2022-08-17T20:35:33.320Z,6.88
2022-08-17T20:38:40.883Z,4.18
2022-08-17T20:41:12.708Z,4.07
2022-08-17T20:43:40.003Z,4.18
2022-08-17T20:46:29.017Z,6.03
2022-08-17T20:49:45.477Z,6.03
2022-08-17T20:52:19.362Z,4.80
2022-08-17T20:54:50.803Z,5.32
2022-08-17T20:57:33.333Z,6.82
2022-08-17T21:00:18.281Z,5.65
2022-08-17T21:02:49.694Z,4.50
2022-08-17T21:05:59.757Z,5.72
2022-08-17T21:08:37.199Z,4.43
2022-08-17T21:12:02.654Z,5.50
2022-08-17T21:14:24.551Z,4.93
2022-08-17T21:17:34.802Z,8.15
2022-08-17T21:20:34.660Z,5.30
2022-08-17T21:23:20.485Z,4.03
2022-08-17T21:25:53.584Z,4.78
2022-08-17T21:29:00.407Z,4.15
2022-08-17T21:31:44.168Z,3.83
2022-08-17T21:34:25.724Z,4.25
2022-08-17T21:36:53.469Z,3.83
2022-08-17T21:39:33.616Z,4.70
2022-08-17T21:42:01.570Z,4.85
2022-08-17T21:44:36.943Z,5.78
2022-08-17T21:47:24.635Z,3.53
2022-08-17T21:49:53.860Z,5.28
2022-08-17T21:52:24.531Z,5.43
2022-08-17T21:54:56.153Z,3.55
2022-08-17T21:57:29.658Z,4.32
2022-08-17T21:59:59.942Z,3.55
2022-08-17T22:02:33.688Z,5.13
2022-08-17T22:05:04.315Z,4.05
2022-08-17T22:07:58.823Z,5.60
2022-08-17T22:10:32.711Z,5.63
2022-08-17T22:13:03.422Z,4.57
2022-08-17T22:15:30.728Z,4.63
2022-08-17T22:18:01.678Z,3.20
2022-08-17T22:20:29.102Z,4.65
2022-08-17T22:23:17.616Z,4.90
2022-08-17T22:26:05.056Z,6.85
2022-08-17T22:28:46.431Z,4.40
2022-08-17T22:31:17.369Z,4.22
2022-08-17T22:33:46.916Z,3.38
2022-08-17T22:36:30.937Z,4.00
2022-08-17T22:39:22.616Z,4.30
2022-08-17T22:42:00.858Z,4.75
2022-08-17T22:44:28.229Z,3.28
2022-08-17T22:47:17.043Z,3.95
2022-08-17T22:49:57.684Z,3.58
2022-08-17T22:52:57.888Z,4.68
2022-08-17T22:55:45.172Z,5.15
2022-08-17T22:58:35.032Z,4.95
2022-08-17T23:01:25.971Z,4.53
2022-08-17T23:03:57.022Z,3.00
2022-08-17T23:06:24.498Z,3.42
2022-08-17T23:08:57.745Z,3.50
2022-08-17T23:11:36.629Z,3.78
2022-08-17T23:14:16.251Z,3.75
2022-08-17T23:16:43.584Z,4.53
2022-08-17T23:19:13.412Z,5.80
2022-08-17T23:21:41.621Z,3.83
2022-08-17T23:24:09.847Z,4.10
2022-08-17T23:26:39.313Z,5.45
2022-08-17T23:29:07.676Z,3.10
2022-08-17T23:31:37.581Z,3.90
2022-08-17T23:34:09.951Z,3.30
2022-08-17T23:36:38.049Z,4.47
2022-08-17T23:39:06.371Z,3.47
2022-08-17T23:41:38.411Z,4.25
2022-08-17T23:44:06.616Z,5.55
2022-08-17T23:46:34.784Z,3.70
2022-08-17T23:49:03.282Z,4.68
2022-08-17T23:51:36.430Z,3.85
2022-08-17T23:54:13.611Z,4.95
2022-08-17T23:56:46.585Z,3.53
2022-08-17T23:59:19.111Z,4.30
